createdAt,value
2022-10-11T00:00:11.972Z,12.90
2022-10-11T00:02:39.005Z,12.90
2022-10-11T00:05:06.571Z,12.90
2022-10-11T00:07:33.629Z,12.80
2022-10-11T00:10:00.768Z,12.80
2022-10-11T00:12:27.709Z,12.70
2022-10-11T00:14:54.605Z,12.70
2022-10-11T00:17:21.615Z,12.70
2022-10-11T00:19:48.657Z,12.60
2022-10-11T00:22:15.625Z,12.60
2022-10-11T00:24:42.628Z,12.60
2022-10-11T00:27:09.650Z,12.50
2022-10-11T00:29:38.297Z,12.50
2022-10-11T00:32:05.804Z,12.50
2022-10-11T00:34:32.833Z,12.40
2022-10-11T00:36:59.756Z,12.40
2022-10-11T00:39:26.958Z,12.30
2022-10-11T00:41:54.161Z,12.30
2022-10-11T00:44:24.558Z,12.20
2022-10-11T00:47:12.571Z,12.20
2022-10-11T00:49:50.334Z,12.10
2022-10-11T00:52:29.153Z,12.00
2022-10-11T00:54:58.330Z,12.00
2022-10-11T00:57:29.655Z,12.00
2022-10-11T00:59:56.753Z,12.00
2022-10-11T01:02:24.883Z,12.00
2022-10-11T01:05:11.293Z,11.90
2022-10-11T01:07:40.578Z,11.80
2022-10-11T01:10:07.734Z,11.70
2022-10-11T01:12:35.373Z,11.70
2022-10-11T01:15:15.912Z,11.70
2022-10-11T01:18:13.385Z,11.70
2022-10-11T01:21:00.861Z,11.70
2022-10-11T01:23:33.882Z,11.60
2022-10-11T01:26:38.565Z,11.50
2022-10-11T01:29:24.106Z,11.40
2022-10-11T01:32:22.169Z,11.30
2022-10-11T01:34:56.772Z,11.30
2022-10-11T01:37:45.329Z,11.30
2022-10-11T01:40:38.437Z,11.20
2022-10-11T01:43:06.113Z,11.30
2022-10-11T01:45:34.848Z,11.30
2022-10-11T01:48:04.560Z,11.20
2022-10-11T01:50:50.389Z,11.10
2022-10-11T01:53:36.132Z,11.20
2022-10-11T01:56:16.606Z,11.30
2022-10-11T01:59:09.380Z,11.30
2022-10-11T02:02:13.955Z,11.40
2022-10-11T02:05:16.081Z,11.50
2022-10-11T02:07:50.426Z,11.60
2022-10-11T02:10:36.105Z,11.60
2022-10-11T02:13:13.198Z,11.60
2022-10-11T02:15:42.341Z,11.60
2022-10-11T02:18:15.033Z,11.60
2022-10-11T02:20:44.137Z,11.60
2022-10-11T02:23:18.772Z,11.60
2022-10-11T02:25:47.388Z,11.50
2022-10-11T02:28:20.749Z,11.40
2022-10-11T02:30:49.760Z,11.40
2022-10-11T02:33:22.891Z,11.30
2022-10-11T02:35:58.708Z,11.30
2022-10-11T02:38:34.041Z,11.30
2022-10-11T02:41:17.653Z,11.20
2022-10-11T02:44:00.591Z,11.30
2022-10-11T02:46:30.604Z,11.20
2022-10-11T02:48:59.883Z,11.20
2022-10-11T02:51:30.221Z,11.20
2022-10-11T02:53:57.527Z,11.30
2022-10-11T02:56:24.726Z,11.40
2022-10-11T02:58:51.805Z,11.40
2022-10-11T03:01:18.844Z,11.40
2022-10-11T03:03:45.877Z,11.40
2022-10-11T03:06:12.917Z,11.40
2022-10-11T03:08:40.008Z,11.40
2022-10-11T03:11:07.117Z,11.50
2022-10-11T03:13:34.165Z,11.50
2022-10-11T03:16:03.687Z,11.50
2022-10-11T03:18:31.444Z,11.50
2022-10-11T03:20:58.608Z,11.50
2022-10-11T03:23:25.702Z,11.50
2022-10-11T03:25:52.766Z,11.50
2022-10-11T03:28:20.231Z,11.50
2022-10-11T03:30:51.558Z,11.60
2022-10-11T03:33:19.080Z,11.60
2022-10-11T03:35:47.767Z,11.70
2022-10-11T03:38:18.073Z,11.70
2022-10-11T03:40:45.166Z,11.70
2022-10-11T03:43:12.732Z,11.80
2022-10-11T03:45:42.372Z,11.80
2022-10-11T03:48:09.814Z,11.80
2022-10-11T03:50:37.374Z,11.80
2022-10-11T03:53:05.258Z,11.80
2022-10-11T03:55:32.536Z,11.80
2022-10-11T03:57:59.636Z,11.80
2022-10-11T04:00:26.695Z,11.80
2022-10-11T04:02:53.592Z,11.80
2022-10-11T04:05:20.838Z,11.80
2022-10-11T04:07:47.801Z,11.70
2022-10-11T04:10:14.765Z,11.80
2022-10-11T04:12:41.763Z,11.80
2022-10-11T04:15:09.173Z,11.80
2022-10-11T04:17:36.088Z,11.90
2022-10-11T04:20:03.129Z,11.90
2022-10-11T04:22:30.106Z,11.90
2022-10-11T04:24:57.147Z,11.90
2022-10-11T04:27:24.122Z,11.90
2022-10-11T04:29:51.068Z,11.90
2022-10-11T04:32:18.015Z,11.90
2022-10-11T04:34:45.146Z,11.90
2022-10-11T04:37:12.266Z,11.90
2022-10-11T04:39:39.378Z,11.90
2022-10-11T04:42:06.283Z,12.00
2022-10-11T04:44:33.347Z,12.00
2022-10-11T04:47:00.348Z,12.00
2022-10-11T04:49:27.620Z,12.00
2022-10-11T04:51:54.614Z,12.00
2022-10-11T04:54:21.599Z,12.00
2022-10-11T04:56:48.627Z,12.00
2022-10-11T04:59:15.611Z,12.00
2022-10-11T05:01:42.598Z,12.10
2022-10-11T05:04:09.601Z,12.10
2022-10-11T05:06:36.534Z,12.10
2022-10-11T05:09:03.761Z,12.10
2022-10-11T05:11:31.096Z,12.10
2022-10-11T05:13:58.103Z,12.10
2022-10-11T05:16:25.331Z,12.10
2022-10-11T05:18:52.494Z,12.10
2022-10-11T05:21:28.277Z,12.10
2022-10-11T05:23:56.441Z,12.20
2022-10-11T05:26:27.960Z,12.20
2022-10-11T05:28:55.641Z,12.30
2022-10-11T05:31:22.774Z,12.30
2022-10-11T05:33:49.904Z,12.30
2022-10-11T05:36:17.038Z,12.30
2022-10-11T05:38:44.314Z,12.30
2022-10-11T05:41:14.648Z,12.30
2022-10-11T05:43:41.899Z,12.30
2022-10-11T05:46:09.116Z,12.30
2022-10-11T05:48:36.375Z,12.30
2022-10-11T05:51:06.156Z,12.40
2022-10-11T05:53:33.640Z,12.40
2022-10-11T05:56:00.943Z,12.40
2022-10-11T05:58:28.326Z,12.40
2022-10-11T06:00:56.984Z,12.40
2022-10-11T06:03:24.542Z,12.40
2022-10-11T06:05:56.479Z,12.40
2022-10-11T06:08:24.002Z,12.40
2022-10-11T06:10:51.058Z,12.40
2022-10-11T06:13:18.556Z,12.40
2022-10-11T06:15:45.535Z,12.40
2022-10-11T06:18:12.520Z,12.40
2022-10-11T06:20:39.609Z,12.50
2022-10-11T06:23:06.513Z,12.50
2022-10-11T06:25:33.558Z,12.50
2022-10-11T06:28:00.574Z,12.50
2022-10-11T06:30:27.544Z,12.50
2022-10-11T06:32:54.568Z,12.50
2022-10-11T06:35:21.503Z,12.60
2022-10-11T06:37:48.473Z,12.60
2022-10-11T06:40:15.508Z,12.60
2022-10-11T06:42:42.401Z,12.70
2022-10-11T06:45:09.867Z,12.70
2022-10-11T06:47:36.740Z,12.80
2022-10-11T06:50:05.587Z,12.80
2022-10-11T06:52:32.638Z,12.80
2022-10-11T06:54:59.709Z,12.90
2022-10-11T06:57:28.243Z,12.90
2022-10-11T06:59:55.175Z,12.90
2022-10-11T07:02:22.189Z,13.00
2022-10-11T07:04:49.177Z,13.10
2022-10-11T07:07:16.107Z,13.10
2022-10-11T07:09:43.141Z,13.10
2022-10-11T07:12:10.215Z,13.20
2022-10-11T07:14:37.330Z,13.10
2022-10-11T07:17:04.512Z,13.10
2022-10-11T07:19:31.700Z,13.10
2022-10-11T07:21:58.761Z,13.10
2022-10-11T07:24:25.917Z,13.10
2022-10-11T07:26:53.026Z,13.10
2022-10-11T07:29:19.957Z,13.10
2022-10-11T07:31:46.941Z,13.20
2022-10-11T07:34:13.937Z,13.20
2022-10-11T07:36:41.158Z,13.20
2022-10-11T07:39:08.921Z,13.30
2022-10-11T07:41:38.166Z,13.30
2022-10-11T07:44:07.723Z,13.40
2022-10-11T07:46:34.746Z,13.40
2022-10-11T07:49:01.734Z,13.50
2022-10-11T07:51:28.787Z,13.50
2022-10-11T07:53:57.363Z,13.60
2022-10-11T07:56:29.213Z,13.50
2022-10-11T07:58:59.610Z,13.50
2022-10-11T08:01:27.953Z,13.50
2022-10-11T08:03:56.916Z,13.50
2022-10-11T08:06:29.973Z,13.40
2022-10-11T08:09:00.147Z,13.40
2022-10-11T08:11:30.292Z,13.40
2022-10-11T08:13:59.448Z,13.40
2022-10-11T08:16:26.738Z,13.40
2022-10-11T08:18:56.649Z,13.40
2022-10-11T08:21:23.854Z,13.30
2022-10-11T08:23:50.946Z,13.30
2022-10-11T08:26:18.038Z,13.30
2022-10-11T08:28:45.014Z,13.30
2022-10-11T08:31:16.766Z,13.40
2022-10-11T08:33:43.991Z,13.40
2022-10-11T08:36:12.112Z,13.40
2022-10-11T08:38:40.141Z,13.40
2022-10-11T08:41:28.343Z,13.40
2022-10-11T08:44:18.222Z,13.40
2022-10-11T08:46:50.395Z,13.50
2022-10-11T08:49:23.317Z,13.50
2022-10-11T08:52:00.419Z,13.50
2022-10-11T08:54:43.353Z,13.60
2022-10-11T08:57:17.981Z,13.60
2022-10-11T08:59:57.897Z,13.60
2022-10-11T09:03:08.165Z,13.60
2022-10-11T09:05:44.553Z,13.60
2022-10-11T09:08:21.497Z,13.60
2022-10-11T09:10:59.821Z,13.60
2022-10-11T09:13:52.525Z,13.60
2022-10-11T09:16:26.387Z,13.50
2022-10-11T09:19:11.618Z,13.60
2022-10-11T09:22:00.196Z,13.60
2022-10-11T09:24:39.520Z,13.50
2022-10-11T09:28:01.223Z,13.50
2022-10-11T09:30:24.029Z,13.60
2022-10-11T09:33:11.476Z,13.60
2022-10-11T09:35:46.466Z,13.60
2022-10-11T09:38:27.370Z,13.70
2022-10-11T09:41:23.469Z,13.70
2022-10-11T09:43:52.345Z,13.70
2022-10-11T09:46:40.342Z,13.80
2022-10-11T09:49:14.834Z,13.80
2022-10-11T09:51:47.327Z,13.90
2022-10-11T09:54:14.404Z,13.90
2022-10-11T09:56:44.466Z,13.90
2022-10-11T09:59:36.055Z,14.00
2022-10-11T10:02:22.400Z,14.10
2022-10-11T10:05:10.530Z,14.10
2022-10-11T10:07:41.077Z,14.10
2022-10-11T10:10:28.696Z,14.20
2022-10-11T10:12:59.498Z,14.30
2022-10-11T10:15:35.410Z,14.30
2022-10-11T10:18:03.921Z,14.40
2022-10-11T10:20:34.354Z,14.40
2022-10-11T10:23:21.965Z,14.30
2022-10-11T10:25:51.799Z,14.30
2022-10-11T10:28:23.204Z,14.40
2022-10-11T10:30:54.438Z,14.60
2022-10-11T10:33:27.101Z,14.70
2022-10-11T10:35:56.661Z,14.80
2022-10-11T10:38:28.772Z,14.70
2022-10-11T10:41:09.397Z,14.80
2022-10-11T10:43:39.747Z,14.70
2022-10-11T10:46:14.035Z,14.70
2022-10-11T10:52:06.073Z,14.80
2022-10-11T10:54:48.000Z,14.80
2022-10-11T10:57:25.266Z,14.80
2022-10-11T11:00:14.854Z,14.80
2022-10-11T11:02:47.256Z,15.00
2022-10-11T11:05:27.156Z,15.20
2022-10-11T11:08:27.922Z,15.30
2022-10-11T11:11:04.500Z,15.40
2022-10-11T11:13:55.627Z,15.60
2022-10-11T11:16:32.935Z,15.80
2022-10-11T11:19:37.514Z,16.20
2022-10-11T11:22:22.181Z,16.40
2022-10-11T11:25:14.807Z,16.60
2022-10-11T11:27:54.262Z,16.50
2022-10-11T11:30:27.223Z,16.20
2022-10-11T11:32:57.149Z,15.90
2022-10-11T11:35:47.557Z,15.70
2022-10-11T11:38:51.083Z,15.60
2022-10-11T11:41:24.121Z,15.50
2022-10-11T11:44:12.153Z,15.50
2022-10-11T11:46:48.144Z,15.60
2022-10-11T11:49:31.775Z,16.10
2022-10-11T11:51:59.951Z,17.00
2022-10-11T11:55:00.161Z,17.80
2022-10-11T11:57:52.004Z,18.20
2022-10-11T12:00:25.753Z,18.00
2022-10-11T12:03:13.380Z,17.70
2022-10-11T12:06:12.348Z,17.40
2022-10-11T12:08:44.672Z,17.10
2022-10-11T12:11:21.987Z,16.90
2022-10-11T12:13:52.145Z,16.80
2022-10-11T12:16:20.286Z,16.90
2022-10-11T12:18:59.036Z,16.90
2022-10-11T12:21:36.628Z,17.00
2022-10-11T12:24:12.248Z,17.20
2022-10-11T12:26:42.977Z,17.20
2022-10-11T12:29:18.914Z,17.20
2022-10-11T12:31:49.303Z,17.00
2022-10-11T12:34:26.889Z,16.90
2022-10-11T12:36:53.963Z,16.70
2022-10-11T12:39:20.932Z,16.50
2022-10-11T12:41:47.878Z,16.30
2022-10-11T12:44:29.317Z,16.20
2022-10-11T12:46:59.115Z,15.90
2022-10-11T12:49:43.449Z,15.80
2022-10-11T12:52:16.784Z,15.80
2022-10-11T12:55:48.465Z,15.90
2022-10-11T12:58:30.853Z,16.00
2022-10-11T13:00:58.095Z,16.10
2022-10-11T13:03:33.675Z,16.20
2022-10-11T13:06:10.230Z,16.20
2022-10-11T13:08:43.177Z,16.20
2022-10-11T13:11:16.691Z,16.30
2022-10-11T13:13:49.870Z,16.40
2022-10-11T13:16:20.228Z,16.50
2022-10-11T13:18:50.613Z,16.50
2022-10-11T13:21:27.005Z,16.60
2022-10-11T13:24:11.769Z,16.70
2022-10-11T13:26:39.223Z,16.80
2022-10-11T13:29:19.634Z,17.10
2022-10-11T13:31:48.346Z,17.50
2022-10-11T13:34:18.618Z,17.70
2022-10-11T13:36:48.072Z,17.70
2022-10-11T13:39:41.643Z,17.90
2022-10-11T13:42:14.118Z,18.10
2022-10-11T13:44:43.220Z,17.90
2022-10-11T13:47:15.340Z,17.80
2022-10-11T13:50:08.446Z,17.90
2022-10-11T13:52:35.445Z,17.70
2022-10-11T13:55:05.989Z,17.60
2022-10-11T13:57:39.109Z,17.30
2022-10-11T14:00:27.104Z,17.20
2022-10-11T14:03:18.116Z,17.10
2022-10-11T14:05:56.698Z,17.10
2022-10-11T14:08:38.803Z,17.10
2022-10-11T14:11:07.794Z,17.10
2022-10-11T14:13:42.283Z,17.00
2022-10-11T14:16:12.460Z,16.90
2022-10-11T14:18:47.190Z,16.80
2022-10-11T14:21:20.476Z,16.70
2022-10-11T14:23:50.640Z,16.50
2022-10-11T14:26:19.297Z,16.30
2022-10-11T14:28:49.548Z,16.20
2022-10-11T14:31:16.582Z,16.20
2022-10-11T14:33:43.867Z,16.20
2022-10-11T14:36:10.831Z,16.20
2022-10-11T14:38:37.784Z,16.10
2022-10-11T14:41:04.829Z,16.10
2022-10-11T14:43:31.756Z,16.00
2022-10-11T14:45:58.708Z,15.90
2022-10-11T14:48:53.645Z,15.90
2022-10-11T14:51:14.201Z,15.90
2022-10-11T14:53:46.272Z,15.90
2022-10-11T14:56:18.925Z,15.90
2022-10-11T14:58:48.368Z,16.00
2022-10-11T15:01:16.740Z,15.90
2022-10-11T15:03:43.774Z,16.00
2022-10-11T15:06:40.818Z,16.00
2022-10-11T15:09:08.279Z,16.00
2022-10-11T15:11:38.141Z,15.90
2022-10-11T15:14:06.103Z,15.80
2022-10-11T15:16:33.827Z,15.80
2022-10-11T15:19:01.262Z,15.70
2022-10-11T15:21:29.769Z,15.60
2022-10-11T15:23:57.210Z,15.50
2022-10-11T15:26:26.427Z,15.40
2022-10-11T15:28:55.145Z,15.20
2022-10-11T15:31:22.888Z,15.10
2022-10-11T15:33:50.234Z,15.00
2022-10-11T15:36:20.348Z,14.90
2022-10-11T15:38:48.464Z,14.90
2022-10-11T15:41:19.297Z,14.80
2022-10-11T15:43:48.456Z,14.80
2022-10-11T15:46:18.728Z,14.70
2022-10-11T15:48:46.213Z,14.70
2022-10-11T15:51:13.307Z,14.60
2022-10-11T15:53:40.746Z,14.60
2022-10-11T15:56:12.124Z,14.60
2022-10-11T15:58:40.964Z,14.50
2022-10-11T16:01:12.554Z,14.50
2022-10-11T16:03:39.745Z,14.50
2022-10-11T16:06:07.284Z,14.30
2022-10-11T16:08:35.222Z,14.30
2022-10-11T16:11:02.942Z,14.20
2022-10-11T16:13:31.197Z,14.10
2022-10-11T16:16:00.214Z,14.00
2022-10-11T16:18:30.133Z,14.00
2022-10-11T16:21:01.258Z,13.80
2022-10-11T16:23:28.149Z,13.80
2022-10-11T16:26:00.589Z,13.80
2022-10-11T16:28:28.745Z,13.70
2022-10-11T16:30:56.084Z,13.60
2022-10-11T16:33:24.429Z,13.60
2022-10-11T16:35:52.190Z,13.60
2022-10-11T16:38:19.209Z,13.60
2022-10-11T16:40:46.130Z,13.50
2022-10-11T16:43:13.107Z,13.40
2022-10-11T16:45:40.065Z,13.40
2022-10-11T16:48:07.009Z,13.30
2022-10-11T16:50:39.096Z,13.30
2022-10-11T16:53:06.606Z,13.20
2022-10-11T16:55:33.582Z,13.20
2022-10-11T16:58:00.522Z,13.10
2022-10-11T17:00:27.547Z,13.00
2022-10-11T17:02:54.507Z,12.90
2022-10-11T17:05:21.430Z,12.80
2022-10-11T17:07:48.598Z,12.70
2022-10-11T17:10:15.837Z,12.70
2022-10-11T17:12:46.528Z,12.60
2022-10-11T17:15:17.090Z,12.60
2022-10-11T17:17:44.454Z,12.60
2022-10-11T17:20:11.501Z,12.60
2022-10-11T17:22:38.505Z,12.60
2022-10-11T17:25:05.965Z,12.50
2022-10-11T17:27:33.150Z,12.50
2022-10-11T17:30:00.057Z,12.50
2022-10-11T17:32:27.207Z,12.40
2022-10-11T17:34:54.220Z,12.40
2022-10-11T17:37:21.296Z,12.30
2022-10-11T17:39:48.408Z,12.30
2022-10-11T17:42:15.462Z,12.30
2022-10-11T17:44:42.388Z,12.20
2022-10-11T17:47:09.522Z,12.10
2022-10-11T17:49:36.692Z,12.00
2022-10-11T17:52:03.977Z,12.00
2022-10-11T17:54:31.115Z,12.00
2022-10-11T17:56:58.437Z,11.90
2022-10-11T17:59:27.693Z,11.90
2022-10-11T18:01:54.924Z,11.90
2022-10-11T18:04:22.551Z,11.80
2022-10-11T18:06:49.730Z,11.80
2022-10-11T18:09:18.578Z,11.70
2022-10-11T18:11:46.335Z,11.70
2022-10-11T18:14:13.374Z,11.70
2022-10-11T18:16:40.933Z,11.70
2022-10-11T18:19:11.550Z,11.70
2022-10-11T18:21:39.148Z,11.60
2022-10-11T18:24:10.950Z,11.60
2022-10-11T18:26:38.390Z,11.50
2022-10-11T18:29:05.482Z,11.50
2022-10-11T18:31:35.230Z,11.50
2022-10-11T18:34:03.755Z,11.50
2022-10-11T18:36:31.427Z,11.50
2022-10-11T18:39:01.837Z,11.50
2022-10-11T18:41:32.059Z,11.50
2022-10-11T18:44:02.144Z,11.50
2022-10-11T18:46:29.779Z,11.50
2022-10-11T18:48:58.797Z,11.50
2022-10-11T18:51:28.354Z,11.50
2022-10-11T18:53:55.546Z,11.50
2022-10-11T18:56:27.035Z,11.50
2022-10-11T18:58:56.074Z,11.50
2022-10-11T19:01:32.376Z,11.50
2022-10-11T19:04:01.550Z,11.50
2022-10-11T19:06:38.132Z,11.40
2022-10-11T19:09:10.632Z,11.50
2022-10-11T19:11:37.970Z,11.50
2022-10-11T19:14:08.034Z,11.60
2022-10-11T19:16:40.600Z,11.60
2022-10-11T19:19:08.182Z,11.60
2022-10-11T19:21:35.873Z,11.70
2022-10-11T19:24:02.832Z,11.70
2022-10-11T19:26:33.834Z,11.70
2022-10-11T19:29:06.526Z,11.70
2022-10-11T19:31:35.195Z,11.80
2022-10-11T19:34:02.294Z,11.80
2022-10-11T19:36:33.979Z,11.80
2022-10-11T19:39:04.133Z,11.90
2022-10-11T19:41:31.070Z,11.90
2022-10-11T19:44:00.873Z,11.90
2022-10-11T19:49:17.814Z,11.90
2022-10-11T19:51:45.163Z,11.90
2022-10-11T19:54:14.038Z,11.90
2022-10-11T19:56:41.515Z,11.90
2022-10-11T19:59:08.665Z,11.90
2022-10-11T20:01:36.942Z,11.90
2022-10-11T20:04:22.688Z,12.00
2022-10-11T20:06:57.162Z,11.90
2022-10-11T20:09:29.460Z,11.90
2022-10-11T20:11:56.805Z,11.80
2022-10-11T20:14:23.822Z,11.80
2022-10-11T20:16:51.308Z,11.80
2022-10-11T20:19:18.808Z,11.80
2022-10-11T20:21:45.919Z,11.80
2022-10-11T20:24:13.152Z,11.80
2022-10-11T20:26:40.294Z,11.80
2022-10-11T20:29:07.573Z,11.80
2022-10-11T20:31:38.299Z,11.90
2022-10-11T20:34:07.462Z,11.90
2022-10-11T20:36:36.287Z,11.90
2022-10-11T20:39:04.795Z,11.90
2022-10-11T20:41:34.695Z,11.90
2022-10-11T20:44:02.476Z,11.90
2022-10-11T20:46:32.688Z,11.90
2022-10-11T20:49:02.521Z,11.90
2022-10-11T20:51:31.797Z,11.90
2022-10-11T20:53:59.264Z,11.90
2022-10-11T20:56:26.941Z,11.90
2022-10-11T20:58:55.466Z,11.90
2022-10-11T21:01:31.346Z,11.90
2022-10-11T21:04:00.043Z,11.90
2022-10-11T21:06:28.186Z,11.90
2022-10-11T21:08:56.342Z,11.90
2022-10-11T21:11:31.937Z,11.90
2022-10-11T21:14:00.682Z,11.90
2022-10-11T21:16:27.930Z,11.80
2022-10-11T21:18:56.994Z,11.80
2022-10-11T21:21:25.167Z,11.80
2022-10-11T21:23:57.266Z,11.80
2022-10-11T21:26:25.073Z,11.80
2022-10-11T21:28:52.351Z,11.80
2022-10-11T21:31:21.434Z,11.80
2022-10-11T21:33:48.790Z,11.80
2022-10-11T21:36:24.763Z,11.70
2022-10-11T21:38:52.613Z,11.70
2022-10-11T21:41:21.894Z,11.70
2022-10-11T21:43:49.470Z,11.70
2022-10-11T21:46:19.932Z,11.70
2022-10-11T21:48:47.704Z,11.70
2022-10-11T21:51:17.303Z,11.70
2022-10-11T21:53:44.223Z,11.70
2022-10-11T21:56:11.261Z,11.70
2022-10-11T21:58:38.296Z,11.60
2022-10-11T22:01:06.137Z,11.60
2022-10-11T22:03:33.150Z,11.70
2022-10-11T22:06:03.523Z,11.60
2022-10-11T22:08:30.771Z,11.60
2022-10-11T22:11:00.214Z,11.60
2022-10-11T22:13:29.121Z,11.60
2022-10-11T22:15:56.745Z,11.60
2022-10-11T22:18:29.860Z,11.50
2022-10-11T22:21:09.787Z,11.50
2022-10-11T22:23:36.753Z,11.50
2022-10-11T22:26:07.853Z,11.40
2022-10-11T22:28:35.675Z,11.40
2022-10-11T22:31:04.501Z,11.30
2022-10-11T22:33:31.642Z,11.30
2022-10-11T22:36:00.741Z,11.20
2022-10-11T22:38:28.135Z,11.20
2022-10-11T22:40:57.979Z,11.20
2022-10-11T22:43:25.208Z,11.20
2022-10-11T22:45:52.168Z,11.10
2022-10-11T22:48:19.114Z,11.10
2022-10-11T22:50:46.053Z,11.10
2022-10-11T22:53:14.242Z,11.20
2022-10-11T22:55:41.974Z,11.20
2022-10-11T22:58:09.262Z,11.20
2022-10-11T23:00:36.751Z,11.30
2022-10-11T23:03:04.348Z,11.30
2022-10-11T23:05:31.301Z,11.30
2022-10-11T23:07:58.199Z,11.30
2022-10-11T23:10:25.207Z,11.30
2022-10-11T23:12:52.112Z,11.40
2022-10-11T23:15:19.281Z,11.30
2022-10-11T23:17:46.215Z,11.40
2022-10-11T23:20:13.400Z,11.40
2022-10-11T23:22:40.304Z,11.40
2022-10-11T23:25:08.047Z,11.40
2022-10-11T23:27:35.124Z,11.40
2022-10-11T23:30:02.441Z,11.30
2022-10-11T23:32:29.372Z,11.30
2022-10-11T23:34:56.410Z,11.30
2022-10-11T23:37:23.312Z,11.20
2022-10-11T23:39:50.331Z,11.20
2022-10-11T23:42:17.230Z,11.20
2022-10-11T23:44:47.362Z,11.20
2022-10-11T23:47:14.265Z,11.20
2022-10-11T23:49:41.317Z,11.20
2022-10-11T23:52:08.233Z,11.10
2022-10-11T23:54:35.128Z,11.10
2022-10-11T23:57:02.122Z,11.10
2022-10-11T23:59:29.102Z,11.00
